Time;durP1;ratioP1;P1;durP2;ratioP2;P2;SDS_P1;SDS_P2;PMS_P1;PMS_P2;Temp;Humidity;BMP_temperature;BMP_pressure;BME280_temperature;BME280_humidity;BME280_pressure;Samples;Min_cycle;Max_cycle;Signal;HPM_P1;HPM_P2
2022/07/05 00:00:00;;;;;;;2.00;0.70;;;;;;;18.55;nan;100820.78;5007769;28;20125;-74
2022/07/05 00:02:25;;;;;;;3.13;0.98;;;;;;;18.51;nan;100822.22;4989967;28;20034;-74
2022/07/05 00:04:51;;;;;;;2.17;0.82;;;;;;;18.47;nan;100816.41;5006691;28;20041;-73
2022/07/05 00:07:17;;;;;;;1.10;0.77;;;;;;;18.41;nan;100814.53;4985276;28;20153;-73
2022/07/05 00:09:44;;;;;;;1.45;0.85;;;;;;;18.38;nan;100817.59;5008631;28;20052;-74
2022/07/05 00:12:10;;;;;;;2.20;0.93;;;;;;;18.35;nan;100815.28;5009015;28;20495;-74
2022/07/05 00:14:36;;;;;;;1.23;0.80;;;;;;;18.27;nan;100810.94;5007467;28;20068;-74
2022/07/05 00:17:03;;;;;;;0.95;0.70;;;;;;;18.22;nan;100824.06;5005628;28;20590;-74
2022/07/05 00:19:28;;;;;;;1.77;0.90;;;;;;;18.16;nan;100822.16;5005694;28;20132;-73
2022/07/05 00:21:53;;;;;;;1.80;0.90;;;;;;;18.07;nan;100809.94;4989302;28;20042;-74
2022/07/05 00:24:20;;;;;;;4.50;1.05;;;;;;;17.97;nan;100807.59;5005861;28;20034;-74
2022/07/05 00:26:45;;;;;;;2.67;1.20;;;;;;;17.83;nan;100804.00;5008195;28;20034;-74
2022/07/05 00:29:10;;;;;;;2.13;0.95;;;;;;;17.74;nan;100810.47;5009652;28;20463;-74
2022/07/05 00:31:36;;;;;;;2.03;0.80;;;;;;;17.67;nan;100814.94;4991656;28;20030;-73
2022/07/05 00:34:01;;;;;;;3.03;1.05;;;;;;;17.63;nan;100815.28;5002655;28;20033;-74
2022/07/05 00:36:26;;;;;;;3.17;1.10;;;;;;;17.59;nan;100815.88;5006300;28;20034;-74
2022/07/05 00:38:52;;;;;;;1.52;0.80;;;;;;;17.57;nan;100808.06;5006960;28;20411;-74
2022/07/05 00:41:17;;;;;;;1.00;0.70;;;;;;;17.51;nan;100806.13;4990876;28;20042;-73
2022/07/05 00:44:00;;;;;;;2.30;0.90;;;;;;;17.41;nan;100809.13;5009802;28;20037;-73
2022/07/05 00:46:27;;;;;;;2.13;0.98;;;;;;;17.35;nan;100804.56;5008491;28;20121;-73
2022/07/05 00:48:53;;;;;;;2.10;1.00;;;;;;;17.33;nan;100809.25;5008346;28;20030;-73
2022/07/05 00:51:21;;;;;;;1.33;0.70;;;;;;;17.30;nan;100809.59;5007155;28;20120;-73
2022/07/05 00:53:48;;;;;;;1.73;0.80;;;;;;;17.31;nan;100807.78;5006718;28;20061;-74
2022/07/05 00:56:14;;;;;;;1.40;0.70;;;;;;;17.31;nan;100810.47;5003355;28;20034;-74
2022/07/05 00:58:39;;;;;;;1.48;0.80;;;;;;;17.32;nan;100812.09;5007290;28;20034;-73
2022/07/05 01:01:07;;;;;;;2.30;1.20;;;;;;;17.33;nan;100813.78;5006048;28;20116;-74
2022/07/05 01:03:33;;;;;;;2.10;1.10;;;;;;;17.34;nan;100802.06;5005738;28;20755;-74
2022/07/05 01:06:01;;;;;;;3.30;1.10;;;;;;;17.33;nan;100811.09;4990941;28;20487;-74
2022/07/05 01:08:28;;;;;;;1.45;0.90;;;;;;;17.31;nan;100815.81;5010279;28;20208;-73
2022/07/05 01:10:55;;;;;;;1.20;0.80;;;;;;;17.28;nan;100816.16;4990860;28;20061;-74
2022/07/05 01:13:22;;;;;;;0.90;0.60;;;;;;;17.25;nan;100811.22;5012686;28;20115;-74
2022/07/05 01:15:48;;;;;;;1.98;0.93;;;;;;;17.20;nan;100806.44;5010980;28;20034;-74
2022/07/05 01:18:14;;;;;;;1.65;0.95;;;;;;;17.13;nan;100808.19;5009965;28;20044;-75
2022/07/05 01:20:41;;;;;;;2.22;0.90;;;;;;;17.07;nan;100807.09;5010434;28;20042;-74
2022/07/05 01:23:06;;;;;;;1.98;1.00;;;;;;;17.00;nan;100808.88;5009796;28;20037;-73
2022/07/05 01:25:32;;;;;;;1.38;0.90;;;;;;;16.92;nan;100809.81;5010792;28;20092;-74
2022/07/05 01:27:59;;;;;;;1.85;1.00;;;;;;;16.84;nan;100814.41;5010891;28;20163;-74
2022/07/05 01:30:24;;;;;;;2.65;1.20;;;;;;;16.77;nan;100814.28;5008554;28;20045;-74
2022/07/05 01:32:51;;;;;;;2.45;1.10;;;;;;;16.69;nan;100820.56;5006829;28;20038;-74
2022/07/05 01:35:20;;;;;;;1.73;1.00;;;;;;;16.62;nan;100813.47;5009100;28;20049;-74
2022/07/05 01:37:47;;;;;;;1.80;0.95;;;;;;;16.53;nan;100812.75;5010954;28;20511;-73
2022/07/05 01:40:13;;;;;;;1.77;1.05;;;;;;;16.47;nan;100816.13;4992452;28;20038;-74
2022/07/05 01:42:38;;;;;;;1.45;0.90;;;;;;;16.41;nan;100812.34;5011205;28;20034;-74
2022/07/05 01:45:04;;;;;;;1.00;0.90;;;;;;;16.39;nan;100825.06;5010002;28;20050;-73
2022/07/05 01:47:35;;;;;;;2.08;0.93;;;;;;;16.34;nan;100817.59;5009047;28;20499;-73
2022/07/05 01:50:02;;;;;;;1.73;1.02;;;;;;;16.28;nan;100813.00;4992693;28;20045;-75
2022/07/05 01:52:29;;;;;;;2.03;1.08;;;;;;;16.24;nan;100821.56;5009618;28;20030;-74
2022/07/05 01:54:54;;;;;;;3.10;1.00;;;;;;;16.20;nan;100814.91;5008492;28;20030;-74
2022/07/05 01:57:19;;;;;;;2.45;1.13;;;;;;;16.16;nan;100809.13;5008961;28;20614;-74
2022/07/05 01:59:45;;;;;;;1.73;1.10;;;;;;;16.10;nan;100812.50;5008677;28;20030;-74
2022/07/05 02:02:10;;;;;;;2.28;1.30;;;;;;;16.03;nan;100812.38;5007507;28;20277;-74
2022/07/05 02:04:36;;;;;;;1.88;1.10;;;;;;;15.98;nan;100819.28;5005476;28;20035;-74
2022/07/05 02:07:06;;;;;;;3.55;1.30;;;;;;;15.92;nan;100824.34;5007740;28;20117;-74
2022/07/05 02:09:31;;;;;;;1.77;1.05;;;;;;;15.88;nan;100822.19;4991852;28;20041;-74
2022/07/05 02:11:56;;;;;;;2.47;1.02;;;;;;;15.84;nan;100828.91;5009070;28;20045;-74
2022/07/05 02:14:22;;;;;;;1.35;0.80;;;;;;;15.81;nan;100821.25;5008864;28;20038;-74
2022/07/05 02:16:47;;;;;;;1.73;1.00;;;;;;;15.78;nan;100821.59;5007954;28;20192;-73
2022/07/05 02:19:12;;;;;;;1.73;1.10;;;;;;;15.75;nan;100824.63;5009047;28;21439;-74
2022/07/05 02:21:38;;;;;;;1.40;0.90;;;;;;;15.73;nan;100826.63;5010469;28;20038;-73
2022/07/05 02:24:03;;;;;;;1.38;0.85;;;;;;;15.70;nan;100822.50;5011246;28;20030;-74
2022/07/05 02:26:29;;;;;;;1.90;1.10;;;;;;;15.64;nan;100821.34;5001769;28;20038;-74
2022/07/05 02:28:54;;;;;;;1.55;0.82;;;;;;;15.61;nan;100826.19;5008953;28;20578;-73
2022/07/05 02:31:20;;;;;;;1.65;1.00;;;;;;;15.56;nan;100836.56;5007177;28;20038;-73
2022/07/05 02:33:45;;;;;;;1.33;0.98;;;;;;;15.53;nan;100834.25;5007529;28;20569;-74
2022/07/05 02:36:12;;;;;;;2.45;1.27;;;;;;;15.48;nan;100827.59;5007803;28;20038;-74
2022/07/05 02:38:40;;;;;;;1.38;1.00;;;;;;;15.42;nan;100825.66;5009208;28;20035;-74
2022/07/05 02:41:07;;;;;;;2.05;1.00;;;;;;;15.39;nan;100827.84;5008640;28;20407;-74
2022/07/05 02:43:33;;;;;;;1.60;1.15;;;;;;;15.35;nan;100831.84;5007301;28;20097;-74
2022/07/05 02:45:59;;;;;;;2.17;1.10;;;;;;;15.28;nan;100824.56;5010932;28;20033;-74
2022/07/05 02:48:24;;;;;;;2.38;1.00;;;;;;;15.25;nan;100832.06;5009473;28;20038;-72
2022/07/05 02:50:50;;;;;;;1.70;1.00;;;;;;;15.20;nan;100831.78;5009232;28;20072;-72
2022/07/05 02:53:15;;;;;;;2.17;0.90;;;;;;;15.18;nan;100825.78;4993903;28;20053;-72
2022/07/05 02:55:40;;;;;;;1.60;0.90;;;;;;;15.15;nan;100829.63;5010999;28;20061;-72
2022/07/05 02:58:06;;;;;;;3.45;1.00;;;;;;;15.14;nan;100833.31;5008297;28;20053;-72
2022/07/05 03:00:32;;;;;;;1.48;0.90;;;;;;;15.12;nan;100826.50;5009415;28;20491;-72
2022/07/05 03:02:57;;;;;;;1.50;0.98;;;;;;;15.08;nan;100826.81;5009308;28;20046;-72
2022/07/05 03:05:23;;;;;;;1.83;0.93;;;;;;;15.04;nan;100825.53;5000881;28;20046;-74
2022/07/05 03:07:48;;;;;;;1.13;0.90;;;;;;;15.10;nan;100828.50;5008456;28;20046;-73
2022/07/05 03:10:13;;;;;;;1.23;0.75;;;;;;;15.08;nan;100834.81;5007431;28;20066;-74
2022/07/05 03:12:38;;;;;;;1.90;1.00;;;;;;;15.03;nan;100828.38;5008016;28;20050;-74
2022/07/05 03:15:04;;;;;;;1.38;1.00;;;;;;;14.98;nan;100834.22;5007640;28;20042;-73
2022/07/05 03:17:30;;;;;;;1.30;0.90;;;;;;;14.94;nan;100832.06;5006713;28;20511;-73
2022/07/05 03:19:55;;;;;;;2.08;0.80;;;;;;;14.91;nan;100829.75;5008127;28;20399;-74
2022/07/05 03:22:20;;;;;;;0.98;0.73;;;;;;;14.89;nan;100840.56;5008544;28;22343;-74
2022/07/05 03:24:46;;;;;;;1.33;0.80;;;;;;;14.86;nan;100839.06;4993242;28;20033;-74
2022/07/05 03:27:11;;;;;;;2.28;0.80;;;;;;;14.83;nan;100838.59;5002807;28;20037;-74
2022/07/05 03:29:36;;;;;;;1.27;0.90;;;;;;;14.79;nan;100845.28;5006832;28;20073;-74
2022/07/05 03:32:02;;;;;;;1.67;0.90;;;;;;;14.76;nan;100842.97;5006819;28;20565;-74
2022/07/05 03:34:27;;;;;;;1.42;0.90;;;;;;;14.74;nan;100848.44;5006335;28;20045;-74
2022/07/05 03:36:52;;;;;;;2.53;0.80;;;;;;;14.76;nan;100842.97;4991130;28;20038;-74
2022/07/05 03:39:18;;;;;;;1.38;0.80;;;;;;;14.76;nan;100848.28;5007579;28;20489;-74
2022/07/05 03:41:43;;;;;;;1.60;0.90;;;;;;;14.76;nan;100850.94;4989503;28;20152;-74
2022/07/05 03:44:08;;;;;;;1.77;0.80;;;;;;;14.75;nan;100854.59;5005638;28;20041;-74
2022/07/05 03:46:33;;;;;;;1.67;0.80;;;;;;;14.76;nan;100853.59;5007486;28;20415;-72
2022/07/05 03:48:59;;;;;;;1.10;0.80;;;;;;;14.81;nan;100853.91;5008648;28;20041;-74
2022/07/05 03:51:24;;;;;;;1.27;0.90;;;;;;;14.92;nan;100861.53;4990911;28;20046;-73
2022/07/05 03:53:49;;;;;;;2.08;1.10;;;;;;;14.99;nan;100857.19;5010269;28;20034;-73
2022/07/05 03:56:19;;;;;;;1.35;0.80;;;;;;;15.08;nan;100857.97;5009045;28;20064;-74
2022/07/05 03:58:46;;;;;;;1.77;1.00;;;;;;;15.18;nan;100863.94;5007515;28;20133;-74
2022/07/05 04:01:12;;;;;;;2.22;0.90;;;;;;;15.24;nan;100865.06;5007352;28;20377;-75
2022/07/05 04:03:37;;;;;;;2.05;0.90;;;;;;;15.30;nan;100867.00;5002644;28;20117;-74
2022/07/05 04:06:02;;;;;;;2.55;0.90;;;;;;;15.36;nan;100870.84;5008716;28;20126;-74
2022/07/05 04:08:28;;;;;;;2.55;1.00;;;;;;;15.39;nan;100865.97;5006053;28;20112;-75
2022/07/05 04:10:53;;;;;;;2.87;1.10;;;;;;;15.49;nan;100868.41;5007412;28;20033;-76
2022/07/05 04:13:18;;;;;;;1.63;1.13;;;;;;;15.55;nan;100865.06;5007075;28;20289;-76
2022/07/05 04:15:43;;;;;;;2.70;1.02;;;;;;;15.61;nan;100876.84;5007109;28;20056;-75
2022/07/05 04:18:09;;;;;;;1.65;1.05;;;;;;;15.65;nan;100867.50;4989694;28;20038;-74
2022/07/05 04:20:34;;;;;;;1.48;0.90;;;;;;;15.69;nan;100874.13;5006633;28;20467;-75
2022/07/05 04:22:59;;;;;;;1.30;0.90;;;;;;;15.75;nan;100875.28;5009711;28;20034;-75
2022/07/05 04:25:25;;;;;;;1.15;0.80;;;;;;;15.76;nan;100872.47;5009854;28;20065;-75
2022/07/05 04:27:54;;;;;;;1.13;0.80;;;;;;;15.80;nan;100880.91;5006035;28;20407;-75
2022/07/05 04:30:21;;;;;;;1.35;1.00;;;;;;;15.82;nan;100878.91;5006571;28;20042;-74
2022/07/05 04:32:46;;;;;;;1.23;0.90;;;;;;;15.88;nan;100883.53;5007044;28;20060;-74
2022/07/05 04:35:12;;;;;;;1.58;0.95;;;;;;;15.94;nan;100890.81;5007085;28;20488;-74
2022/07/05 04:37:38;;;;;;;3.55;1.08;;;;;;;15.91;nan;100886.66;5006274;28;20042;-74
2022/07/05 04:40:05;;;;;;;1.90;1.08;;;;;;;15.90;nan;100893.03;5007859;28;20491;-74
2022/07/05 04:42:31;;;;;;;1.83;1.23;;;;;;;15.90;nan;100885.03;5013961;28;20107;-75
2022/07/05 04:44:56;;;;;;;1.98;1.15;;;;;;;15.99;nan;100891.09;5014457;28;20426;-74
2022/07/05 04:47:22;;;;;;;3.55;1.08;;;;;;;16.10;nan;100885.34;5014528;28;20034;-74
2022/07/05 04:49:47;;;;;;;2.05;1.10;;;;;;;16.18;nan;100892.47;5013878;28;20156;-75
2022/07/05 04:52:12;;;;;;;1.75;1.10;;;;;;;16.27;nan;100891.38;5011121;28;20108;-73
2022/07/05 04:54:38;;;;;;;1.90;1.00;;;;;;;16.34;nan;100894.16;5007858;28;20510;-74
2022/07/05 04:57:03;;;;;;;1.85;1.02;;;;;;;16.43;nan;100885.06;5012830;28;20038;-74
2022/07/05 04:59:29;;;;;;;2.40;1.38;;;;;;;16.56;nan;100895.13;5024746;28;20033;-75
2022/07/05 05:01:55;;;;;;;2.30;0.95;;;;;;;16.61;nan;100897.25;5020143;28;20465;-74
2022/07/05 05:04:20;;;;;;;1.75;1.02;;;;;;;16.67;nan;100897.34;5021136;28;20406;-74
2022/07/05 05:06:45;;;;;;;1.95;1.00;;;;;;;16.69;nan;100899.84;5014662;28;20499;-74
2022/07/05 05:09:10;;;;;;;1.20;0.70;;;;;;;16.70;nan;100896.97;5026753;28;20037;-74
2022/07/05 05:11:36;;;;;;;1.88;1.00;;;;;;;16.73;nan;100896.63;5024960;28;20041;-74
2022/07/05 05:14:01;;;;;;;1.67;1.00;;;;;;;16.79;nan;100904.94;5004379;28;20093;-74
2022/07/05 05:16:26;;;;;;;2.15;1.15;;;;;;;16.85;nan;100898.84;5002803;28;20150;-75
2022/07/05 05:18:52;;;;;;;1.80;0.90;;;;;;;16.92;nan;100905.97;5017912;28;20038;-74
2022/07/05 05:21:17;;;;;;;1.60;1.00;;;;;;;16.97;nan;100908.91;5019687;28;20064;-74
2022/07/05 05:23:42;;;;;;;2.45;1.08;;;;;;;17.06;nan;100909.63;5012412;28;20064;-74
2022/07/05 05:26:07;;;;;;;1.85;0.90;;;;;;;17.15;nan;100905.03;5011771;28;20442;-74
2022/07/05 05:28:33;;;;;;;2.88;1.00;;;;;;;17.26;nan;100911.78;5012734;28;20030;-74
2022/07/05 05:30:59;;;;;;;1.00;0.70;;;;;;;17.37;nan;100908.59;5009739;28;20399;-74
2022/07/05 05:33:24;;;;;;;2.33;1.15;;;;;;;17.46;nan;100912.81;4995425;28;20053;-75
2022/07/05 05:35:49;;;;;;;3.22;1.30;;;;;;;17.53;nan;100908.38;5008931;28;20215;-74
2022/07/05 05:38:15;;;;;;;1.92;1.17;;;;;;;17.65;nan;100911.41;5003366;28;20088;-74
2022/07/05 05:40:44;;;;;;;2.47;1.30;;;;;;;17.80;nan;100912.22;5009765;28;20034;-74
2022/07/05 05:43:10;;;;;;;2.97;1.63;;;;;;;17.95;nan;100911.34;5007704;28;20038;-74
2022/07/05 05:45:36;;;;;;;2.53;1.60;;;;;;;18.00;nan;100920.44;5010008;28;20034;-74
2022/07/05 05:48:03;;;;;;;4.53;1.60;;;;;;;18.12;nan;100915.41;5004395;28;20601;-74
2022/07/05 05:50:29;;;;;;;3.67;1.52;;;;;;;18.31;nan;100913.09;5007912;28;20069;-74
2022/07/05 05:52:55;;;;;;;3.63;2.03;;;;;;;18.68;nan;100928.00;4992945;28;20034;-74
2022/07/05 05:55:24;;;;;;;2.58;1.30;;;;;;;19.18;nan;100925.25;5011730;28;20518;-73
2022/07/05 05:57:49;;;;;;;3.05;1.20;;;;;;;19.68;nan;100926.72;5012020;28;20041;-74
2022/07/05 06:00:16;;;;;;;1.48;1.05;;;;;;;20.17;nan;100923.94;4990596;28;20038;-73
2022/07/05 06:02:42;;;;;;;;;;;;;;;20.49;nan;100933.84;5010868;28;20096;-72
2022/07/05 06:05:08;;;;;;;3.45;1.30;;;;;;;20.90;nan;100923.91;4993870;28;19925;-72
2022/07/05 06:07:47;;;;;;;2.47;1.00;;;;;;;21.43;nan;100926.47;5012220;28;20213;-72
2022/07/05 06:10:39;;;;;;;2.97;1.27;;;;;;;22.09;nan;100924.41;5011804;28;20125;-72
2022/07/05 06:13:05;;;;;;;;;;;;;;;22.41;nan;100928.75;5008049;28;20034;-72
2022/07/05 06:15:31;;;;;;;3.42;1.27;;;;;;;22.93;nan;100933.88;5012360;28;19924;-72
2022/07/05 06:17:57;;;;;;;1.58;0.95;;;;;;;23.43;nan;100939.16;5012054;28;20046;-72
2022/07/05 06:20:24;;;;;;;;;;;;;;;23.73;nan;100941.88;5011731;28;20113;-73
2022/07/05 06:22:50;;;;;;;2.05;0.90;;;;;;;24.08;nan;100948.47;5010874;28;20312;-72
2022/07/05 06:25:16;;;;;;;2.75;1.20;;;;;;;24.25;nan;100938.63;5011691;28;20069;-73
2022/07/05 06:27:46;;;;;;;1.80;1.20;;;;;;;24.47;nan;100944.31;5012296;28;20038;-72
2022/07/05 06:30:15;;;;;;;1.95;1.00;;;;;;;24.70;nan;100943.50;5014340;28;20085;-72
2022/07/05 06:32:42;;;;;;;3.28;0.90;;;;;;;24.81;nan;100947.25;4993756;28;20040;-73
2022/07/05 06:35:08;;;;;;;2.40;1.08;;;;;;;24.91;nan;100946.69;5011965;28;20507;-72
2022/07/05 06:37:44;;;;;;;2.95;1.13;;;;;;;24.93;nan;100944.53;5010652;28;20399;-73
2022/07/05 06:40:11;;;;;;;1.58;0.80;;;;;;;25.07;nan;100945.94;4993113;28;20034;-73
2022/07/05 06:42:37;;;;;;;3.28;0.88;;;;;;;25.30;nan;100947.81;5008834;28;20022;-73
2022/07/05 06:45:02;;;;;;;1.40;0.90;;;;;;;25.36;nan;100954.13;5015056;28;20038;-72
2022/07/05 06:47:28;;;;;;;1.42;0.68;;;;;;;25.66;nan;100959.34;5011296;28;20034;-74
2022/07/05 06:49:53;;;;;;;1.52;0.90;;;;;;;25.64;nan;100961.47;4993729;28;20143;-72
2022/07/05 06:52:18;;;;;;;1.45;0.80;;;;;;;25.99;nan;100961.34;5010725;28;20137;-72
2022/07/05 06:54:43;;;;;;;1.57;0.80;;;;;;;26.14;nan;100965.41;5011073;28;20431;-72
2022/07/05 06:57:09;;;;;;;1.47;0.70;;;;;;;26.52;nan;100966.56;5011323;28;20399;-72
2022/07/05 06:59:34;;;;;;;2.55;0.75;;;;;;;26.97;nan;100958.31;4993404;28;20280;-72
2022/07/05 07:01:59;;;;;;;2.00;0.80;;;;;;;27.24;nan;100968.47;5010701;28;20135;-73
2022/07/05 07:04:25;;;;;;;1.70;0.90;;;;;;;27.07;nan;100966.59;5009914;28;20272;-72
2022/07/05 07:06:50;;;;;;;1.33;0.70;;;;;;;26.90;nan;100963.91;4996103;28;20041;-73
2022/07/05 07:09:18;;;;;;;1.40;0.68;;;;;;;27.07;nan;100961.16;4995211;28;20749;-72
2022/07/05 07:11:45;;;;;;;1.48;0.65;;;;;;;27.28;nan;100956.84;5001779;28;20058;-73
2022/07/05 07:14:10;;;;;;;0.65;0.50;;;;;;;27.75;nan;100966.34;5009679;28;20565;-73
2022/07/05 07:16:36;;;;;;;1.20;0.60;;;;;;;28.12;nan;100966.44;5002954;28;20120;-73
2022/07/05 07:19:02;;;;;;;2.47;0.90;;;;;;;28.24;nan;100966.28;5009127;28;20033;-73
2022/07/05 07:21:27;;;;;;;2.60;0.80;;;;;;;28.53;nan;100968.72;5007052;28;20056;-73
2022/07/05 07:23:52;;;;;;;1.42;0.70;;;;;;;28.65;nan;100979.41;4992895;28;20053;-74
2022/07/05 07:26:18;;;;;;;1.58;0.70;;;;;;;28.87;nan;100971.97;5010256;28;20046;-74
2022/07/05 07:28:43;;;;;;;3.67;0.90;;;;;;;28.99;nan;100978.00;5016456;28;20037;-74
2022/07/05 07:31:08;;;;;;;2.77;0.80;;;;;;;28.91;nan;100964.91;5004207;28;20037;-73
2022/07/05 07:33:34;;;;;;;1.67;0.70;;;;;;;29.00;nan;100976.91;5016769;28;20935;-73
2022/07/05 07:35:59;;;;;;;2.47;0.80;;;;;;;29.20;nan;100972.72;4996568;28;20041;-74
2022/07/05 07:38:25;;;;;;;2.13;0.70;;;;;;;29.22;nan;100978.69;5010636;28;20789;-74
2022/07/05 07:40:51;;;;;;;2.25;0.90;;;;;;;29.37;nan;100975.22;5011099;28;20030;-74
2022/07/05 07:43:16;;;;;;;1.80;0.77;;;;;;;29.02;nan;100974.75;5017963;28;20048;-74
2022/07/05 07:45:42;;;;;;;0.90;0.60;;;;;;;29.30;nan;100975.47;5013008;28;20468;-74
2022/07/05 07:48:08;;;;;;;3.42;0.80;;;;;;;29.67;nan;100976.44;5017493;28;20354;-74
2022/07/05 07:50:33;;;;;;;1.42;0.70;;;;;;;30.02;nan;100972.97;5011643;28;20037;-74
2022/07/05 07:52:58;;;;;;;1.15;0.70;;;;;;;30.42;nan;100979.56;5013008;28;20614;-74
2022/07/05 07:55:24;;;;;;;1.53;0.77;;;;;;;30.61;nan;100977.09;4993339;28;20038;-74
2022/07/05 07:57:49;;;;;;;0.80;0.40;;;;;;;30.35;nan;100981.75;4992824;28;20546;-74
2022/07/05 08:00:14;;;;;;;2.57;0.87;;;;;;;30.47;nan;100979.56;5003621;28;20060;-73
2022/07/05 08:02:40;;;;;;;1.13;0.50;;;;;;;30.81;nan;100974.31;5009492;28;20272;-73
2022/07/05 08:05:06;;;;;;;2.70;0.82;;;;;;;30.86;nan;100979.78;5009927;28;20406;-73
2022/07/05 08:07:31;;;;;;;1.05;0.70;;;;;;;31.20;nan;100986.50;5009475;28;20518;-74
2022/07/05 08:09:57;;;;;;;0.73;0.45;;;;;;;31.63;nan;100987.72;5010071;28;20044;-73
2022/07/05 08:12:22;;;;;;;1.17;0.60;;;;;;;31.98;nan;100982.34;5008762;28;20499;-74
2022/07/05 08:14:48;;;;;;;1.48;0.70;;;;;;;32.29;nan;100981.00;5009400;28;20038;-74
2022/07/05 08:17:13;;;;;;;2.05;0.47;;;;;;;32.87;nan;100977.47;5009580;28;20033;-74
2022/07/05 08:22:23;;;;;;;1.02;0.60;;;;;;;32.94;nan;100974.38;5009307;28;20271;-74
2022/07/05 08:24:49;;;;;;;2.50;0.70;;;;;;;32.71;nan;100978.75;5009534;28;20343;-74
2022/07/05 08:27:14;;;;;;;1.33;0.60;;;;;;;32.73;nan;100985.56;4991686;28;20064;-74
2022/07/05 08:29:41;;;;;;;1.05;0.70;;;;;;;32.76;nan;100979.50;4992133;28;20069;-73
2022/07/05 08:32:07;;;;;;;1.13;0.70;;;;;;;33.26;nan;100976.50;4987557;28;20034;-74
2022/07/05 08:34:33;;;;;;;0.85;0.60;;;;;;;33.95;nan;100976.13;5009028;28;20030;-74
2022/07/05 08:36:59;;;;;;;2.20;0.60;;;;;;;34.02;nan;100971.06;5009530;28;20582;-74
2022/07/05 08:39:24;;;;;;;1.17;0.63;;;;;;;34.35;nan;100977.41;4993881;28;20137;-73
2022/07/05 08:41:51;;;;;;;1.10;0.65;;;;;;;34.72;nan;100974.84;5016644;28;20065;-74
2022/07/05 08:44:20;;;;;;;2.85;0.80;;;;;;;34.51;nan;100977.13;4999170;28;20037;-74
2022/07/05 08:46:47;;;;;;;1.30;0.50;;;;;;;34.51;nan;100979.88;5008447;28;20076;-74
2022/07/05 08:49:13;;;;;;;0.60;0.43;;;;;;;34.73;nan;100973.72;5005619;28;20030;-74
2022/07/05 08:51:41;;;;;;;1.20;0.52;;;;;;;34.82;nan;100972.72;5008665;28;20045;-74
2022/07/05 08:54:08;;;;;;;1.17;0.40;;;;;;;35.50;nan;100971.06;5008003;28;20189;-74
2022/07/05 08:56:35;;;;;;;1.55;0.80;;;;;;;35.67;nan;100962.19;5009634;28;20030;-74
2022/07/05 08:59:00;;;;;;;1.65;0.47;;;;;;;35.46;nan;100963.75;5009589;28;20061;-74
2022/07/05 09:01:27;;;;;;;0.60;0.60;;;;;;;35.45;nan;100965.69;5007121;28;20074;-74
2022/07/05 09:03:53;;;;;;;1.33;0.57;;;;;;;35.66;nan;100967.97;4995251;28;20348;-74
2022/07/05 09:06:21;;;;;;;1.13;0.50;;;;;;;35.76;nan;100962.25;5005116;28;20088;-74
2022/07/05 09:08:50;;;;;;;2.70;0.80;;;;;;;35.77;nan;100963.88;5009779;28;20387;-73
2022/07/05 09:11:16;;;;;;;0.90;0.50;;;;;;;35.68;nan;100972.06;5009013;28;20410;-73
2022/07/05 09:13:47;;;;;;;0.68;0.50;;;;;;;35.84;nan;100969.75;5008934;28;20069;-72
2022/07/05 09:16:12;;;;;;;1.25;0.70;;;;;;;35.98;nan;100972.47;5011314;28;20052;-73
2022/07/05 09:18:49;;;;;;;1.98;0.70;;;;;;;35.61;nan;100971.69;5000056;28;20034;-73
2022/07/05 09:21:18;;;;;;;0.82;0.50;;;;;;;36.03;nan;100963.28;4987325;28;20053;-73
2022/07/05 09:23:45;;;;;;;1.30;0.57;;;;;;;36.36;nan;100967.41;5010054;28;20037;-73
2022/07/05 09:26:10;;;;;;;1.90;0.57;;;;;;;36.93;nan;100977.72;5012430;28;20499;-72
2022/07/05 09:28:36;;;;;;;0.88;0.50;;;;;;;37.08;nan;100968.25;5013010;28;20026;-73
2022/07/05 09:31:02;;;;;;;0.85;0.47;;;;;;;37.02;nan;100975.03;5012292;28;20037;-73
2022/07/05 09:33:27;;;;;;;1.63;0.63;;;;;;;37.10;nan;100960.47;5012659;28;20030;-73
2022/07/05 09:36:01;;;;;;;1.03;0.60;;;;;;;37.46;nan;100962.13;5012471;28;20109;-74
2022/07/05 09:38:27;;;;;;;1.42;0.60;;;;;;;38.14;nan;100964.44;5015820;28;20293;-73
2022/07/05 09:40:54;;;;;;;1.92;0.70;;;;;;;38.36;nan;100966.19;5020641;28;20495;-73
2022/07/05 09:43:20;;;;;;;2.75;0.70;;;;;;;37.78;nan;100960.91;5012139;28;20030;-73
2022/07/05 09:45:55;;;;;;;1.42;0.60;;;;;;;37.38;nan;100972.03;5011755;28;20034;-73
2022/07/05 09:48:22;;;;;;;1.77;0.70;;;;;;;37.66;nan;100969.00;5015892;28;20041;-73
2022/07/05 09:50:48;;;;;;;1.95;0.88;;;;;;;37.31;nan;100966.19;5013520;28;20034;-72
2022/07/05 09:53:14;;;;;;;1.48;0.60;;;;;;;38.43;nan;100960.97;5018864;28;20034;-73
2022/07/05 09:55:40;;;;;;;3.42;0.68;;;;;;;39.71;nan;100967.28;5014543;28;20291;-73
2022/07/05 09:58:06;;;;;;;1.20;0.60;;;;;;;38.71;nan;100961.38;5011262;28;20277;-73
2022/07/05 10:00:31;;;;;;;2.10;0.80;;;;;;;37.91;nan;100961.03;5012349;28;20521;-73
2022/07/05 10:03:01;;;;;;;1.15;0.60;;;;;;;38.30;nan;100959.19;5011569;28;20104;-73
2022/07/05 10:05:31;;;;;;;2.08;0.70;;;;;;;39.30;nan;100966.09;5007402;28;20530;-73
2022/07/05 10:08:00;;;;;;;1.83;0.60;;;;;;;38.47;nan;100961.94;5004593;28;20282;-72
2022/07/05 10:10:30;;;;;;;1.35;0.60;;;;;;;37.89;nan;100971.59;5019646;28;20061;-73
2022/07/05 10:13:01;;;;;;;0.65;0.40;;;;;;;36.34;nan;100960.56;5011435;28;20064;-73
2022/07/05 10:15:30;;;;;;;1.35;0.50;;;;;;;34.53;nan;100961.16;4994471;28;20030;-73
2022/07/05 10:18:11;;;;;;;2.35;0.40;;;;;;;34.42;nan;100963.25;5010972;28;20050;-72
2022/07/05 10:20:37;;;;;;;2.47;0.80;;;;;;;36.92;nan;100969.78;4993702;28;20491;-73
2022/07/05 10:23:06;;;;;;;1.25;0.60;;;;;;;38.47;nan;100961.13;4994161;28;20038;-73
2022/07/05 10:25:31;;;;;;;1.17;0.60;;;;;;;39.42;nan;100968.16;5018925;28;20403;-73
2022/07/05 10:27:58;;;;;;;1.23;0.40;;;;;;;40.04;nan;100969.28;5004860;28;20034;-73
2022/07/05 10:30:24;;;;;;;1.38;0.57;;;;;;;38.88;nan;100966.81;5011784;28;20432;-73
2022/07/05 10:32:51;;;;;;;1.55;0.70;;;;;;;38.99;nan;100966.47;5011321;28;20054;-73
2022/07/05 10:35:18;;;;;;;2.15;0.70;;;;;;;38.64;nan;100961.88;4993860;28;20026;-73
2022/07/05 10:37:45;;;;;;;1.85;0.60;;;;;;;38.91;nan;100967.28;5008678;28;20057;-73
2022/07/05 10:40:11;;;;;;;2.33;0.70;;;;;;;38.74;nan;100965.44;5005809;28;20034;-73
2022/07/05 10:42:41;;;;;;;0.85;0.57;;;;;;;39.47;nan;100957.72;4986126;28;20064;-73
2022/07/05 10:45:31;;;;;;;1.30;0.60;;;;;;;39.71;nan;100959.81;5011713;28;20503;-73
2022/07/05 10:48:16;;;;;;;2.70;0.50;;;;;;;40.19;nan;100962.28;5005504;28;20450;-73
2022/07/05 10:51:13;;;;;;;2.85;0.80;;;;;;;40.88;nan;100961.50;5013169;28;20133;-73
2022/07/05 10:53:39;;;;;;;2.17;0.82;;;;;;;42.05;nan;100956.25;5013449;28;20038;-73
2022/07/05 10:56:04;;;;;;;1.47;0.50;;;;;;;43.30;nan;100953.00;4999514;28;20046;-73
2022/07/05 10:58:39;;;;;;;1.60;0.60;;;;;;;44.16;nan;100951.97;4991805;28;20039;-73
2022/07/05 11:01:20;;;;;;;;;;;;;;;41.87;nan;100955.75;4993990;28;20038;-74
2022/07/05 11:03:46;;;;;;;;;;;;;;;38.69;nan;100943.47;5010077;28;19920;-72
2022/07/05 11:06:24;;;;;;;;;;;;;;;36.87;nan;100951.44;5005047;28;19941;-73
2022/07/05 11:08:59;;;;;;;;;;;;;;;37.58;nan;100943.03;5011443;28;19920;-73
2022/07/05 11:11:34;;;;;;;;;;;;;;;38.70;nan;100937.63;5011572;28;19913;-72
2022/07/05 11:14:01;;;;;;;1.40;0.68;;;;;;;39.49;nan;100947.09;5010976;28;19920;-72
2022/07/05 11:16:31;;;;;;;1.60;0.70;;;;;;;41.04;nan;100935.81;5010958;28;20038;-73
2022/07/05 11:19:09;;;;;;;1.20;0.40;;;;;;;40.67;nan;100935.84;5004338;28;20435;-73
2022/07/05 11:21:37;;;;;;;2.00;0.80;;;;;;;40.70;nan;100941.50;5012235;28;20038;-73
2022/07/05 11:24:25;;;;;;;2.47;0.80;;;;;;;41.53;nan;100944.06;5010798;28;20053;-73
2022/07/05 11:26:52;;;;;;;1.30;0.60;;;;;;;42.06;nan;100944.78;4992436;28;20044;-73
2022/07/05 11:29:41;;;;;;;1.67;0.68;;;;;;;39.25;nan;100933.09;5010849;28;20042;-73
2022/07/05 11:32:08;;;;;;;2.72;0.80;;;;;;;39.22;nan;100934.59;4992422;28;20526;-73
2022/07/05 11:34:34;;;;;;;0.70;0.57;;;;;;;38.11;nan;100929.19;5010130;28;20133;-73
2022/07/05 11:37:38;;;;;;;1.40;0.73;;;;;;;39.57;nan;100914.97;5006201;28;20512;-73
2022/07/05 11:40:06;;;;;;;1.42;0.60;;;;;;;40.93;nan;100918.88;5003875;28;20487;-72
2022/07/05 11:42:37;;;;;;;1.90;0.70;;;;;;;41.89;nan;100929.22;5018278;28;20044;-73
2022/07/05 11:45:02;;;;;;;2.00;0.60;;;;;;;41.92;nan;100925.72;5010731;28;20030;-72